createdAt,value
2019-03-02T00:04:52.352Z,11.53
2019-03-02T00:09:45.240Z,12.10
2019-03-02T00:14:38.136Z,13.10
2019-03-02T00:19:31.031Z,13.20
2019-03-02T00:24:23.956Z,12.87
2019-03-02T00:29:16.822Z,13.30
2019-03-02T00:34:09.760Z,12.93
2019-03-02T00:39:03.766Z,13.23
2019-03-02T00:43:59.781Z,13.93
2019-03-02T00:48:51.466Z,13.43
2019-03-02T00:53:44.335Z,14.40
2019-03-02T00:58:37.247Z,13.40
2019-03-02T01:03:30.081Z,13.30
2019-03-02T01:08:23.080Z,13.43
2019-03-02T01:13:16.812Z,13.03
2019-03-02T01:18:13.128Z,13.83
2019-03-02T01:23:07.185Z,13.80
2019-03-02T01:28:00.165Z,14.07
2019-03-02T01:32:53.692Z,14.23
2019-03-02T01:37:46.824Z,15.20
2019-03-02T01:42:39.752Z,15.80
2019-03-02T01:47:32.736Z,15.83
2019-03-02T01:52:25.657Z,15.70
2019-03-02T01:57:18.557Z,16.93
2019-03-02T02:02:11.638Z,16.73
2019-03-02T02:07:04.919Z,15.23
2019-03-02T02:11:58.423Z,18.43
2019-03-02T02:16:51.382Z,17.07
2019-03-02T02:21:44.383Z,17.47
2019-03-02T02:26:37.298Z,16.87
2019-03-02T02:31:30.211Z,16.63
2019-03-02T02:36:25.454Z,16.27
2019-03-02T02:41:22.972Z,16.40
2019-03-02T02:46:13.123Z,16.57
2019-03-02T02:51:10.220Z,16.90
2019-03-02T02:56:01.990Z,16.57
2019-03-02T03:00:55.652Z,17.53
2019-03-02T03:05:54.190Z,16.50
2019-03-02T03:10:44.491Z,17.50
2019-03-02T03:15:43.710Z,17.33
2019-03-02T03:20:37.005Z,16.70
2019-03-02T03:25:29.950Z,17.13
2019-03-02T03:30:32.919Z,15.60
2019-03-02T03:35:19.983Z,16.83
2019-03-02T03:40:12.925Z,18.00
2019-03-02T03:45:08.310Z,19.00
2019-03-02T03:50:01.350Z,17.63
2019-03-02T03:54:54.242Z,17.90
2019-03-02T03:59:47.242Z,18.30
2019-03-02T04:04:40.146Z,18.70
2019-03-02T04:09:42.865Z,17.87
2019-03-02T04:14:38.202Z,17.40
2019-03-02T04:19:34.069Z,17.57
2019-03-02T04:24:28.052Z,16.53
2019-03-02T04:29:21.935Z,16.50
2019-03-02T04:34:20.683Z,16.07
2019-03-02T04:39:13.613Z,17.50
2019-03-02T04:44:04.752Z,16.27
2019-03-02T04:48:57.675Z,16.30
2019-03-02T04:53:50.593Z,17.43
2019-03-02T04:58:43.721Z,17.83
2019-03-02T05:03:38.295Z,17.67
2019-03-02T05:08:31.187Z,16.60
2019-03-02T05:13:24.803Z,15.17
2019-03-02T05:18:18.991Z,16.03
2019-03-02T05:23:12.087Z,16.50
2019-03-02T05:28:07.238Z,15.80
2019-03-02T05:32:59.811Z,14.80
2019-03-02T05:37:52.744Z,15.43
2019-03-02T05:42:50.800Z,16.40
2019-03-02T05:47:41.288Z,17.07
2019-03-02T05:52:34.257Z,17.50
2019-03-02T05:57:28.703Z,16.03
2019-03-02T06:02:21.634Z,15.40
2019-03-02T06:07:14.883Z,15.00
2019-03-02T06:12:07.840Z,15.87
2019-03-02T06:17:00.700Z,15.20
2019-03-02T06:21:53.602Z,16.37
2019-03-02T06:26:48.491Z,15.33
2019-03-02T06:31:41.474Z,16.50
2019-03-02T06:36:34.365Z,15.30
2019-03-02T06:41:29.755Z,16.53
2019-03-02T06:46:23.468Z,16.77
2019-03-02T06:51:18.429Z,16.43
2019-03-02T06:56:11.632Z,16.60
2019-03-02T07:01:05.658Z,17.33
2019-03-02T07:05:58.587Z,17.20
2019-03-02T07:10:54.505Z,17.07
2019-03-02T07:15:47.452Z,16.00
2019-03-02T07:20:40.977Z,16.23
2019-03-02T07:25:37.094Z,17.10
2019-03-02T07:30:28.613Z,18.37
2019-03-02T07:35:21.585Z,17.67
2019-03-02T07:40:14.873Z,17.27
2019-03-02T07:45:10.958Z,17.40
2019-03-02T07:50:04.677Z,16.27
2019-03-02T07:54:58.577Z,17.50
2019-03-02T07:59:51.777Z,16.53
2019-03-02T08:04:47.587Z,16.40
2019-03-02T08:09:41.906Z,17.00
2019-03-02T08:14:35.132Z,17.03
2019-03-02T08:19:28.119Z,16.50
2019-03-02T08:24:21.149Z,17.57
2019-03-02T08:29:14.176Z,17.30
2019-03-02T08:34:09.762Z,17.30
2019-03-02T08:39:02.207Z,16.87
2019-03-02T08:43:55.526Z,17.33
2019-03-02T08:48:49.777Z,16.20
2019-03-02T08:53:44.453Z,16.50
2019-03-02T08:58:37.368Z,16.67
2019-03-02T09:03:30.397Z,16.53
2019-03-02T09:08:23.343Z,17.13
2019-03-02T09:13:16.275Z,17.13
2019-03-02T09:18:09.258Z,18.27
2019-03-02T09:23:02.204Z,17.27
2019-03-02T09:27:55.143Z,18.23
2019-03-02T09:32:51.057Z,18.07
2019-03-02T09:37:44.820Z,17.60
2019-03-02T09:42:40.213Z,17.27
2019-03-02T09:47:32.653Z,17.13
2019-03-02T09:52:25.567Z,18.23
2019-03-02T09:57:18.513Z,17.73
2019-03-02T10:02:14.474Z,17.80
2019-03-02T10:07:06.632Z,18.20
2019-03-02T10:11:59.677Z,17.47
2019-03-02T10:16:52.688Z,16.87
2019-03-02T10:21:47.467Z,17.60
2019-03-02T10:26:43.323Z,17.43
2019-03-02T10:31:35.634Z,16.43
2019-03-02T10:36:31.034Z,17.23
2019-03-02T10:41:23.539Z,17.43
2019-03-02T10:46:16.478Z,16.90
2019-03-02T10:51:09.456Z,17.80
2019-03-02T10:56:02.500Z,17.17
2019-03-02T11:00:56.555Z,16.93
2019-03-02T11:05:56.907Z,17.67
2019-03-02T11:11:10.553Z,17.70
2019-03-02T11:16:41.092Z,16.60
2019-03-02T11:22:14.976Z,17.73
2019-03-02T11:27:28.487Z,17.87
2019-03-02T11:32:31.656Z,16.37
2019-03-02T11:37:32.316Z,16.30
2019-03-02T11:42:44.901Z,15.30
2019-03-02T11:48:13.670Z,15.30
2019-03-02T11:53:32.934Z,14.60
2019-03-02T11:58:44.029Z,13.60
2019-03-02T12:03:48.719Z,15.30
2019-03-02T12:09:01.266Z,15.27
2019-03-02T12:14:34.565Z,14.00
2019-03-02T12:19:45.082Z,14.33
2019-03-02T12:24:58.498Z,13.33
2019-03-02T12:30:03.451Z,12.60
2019-03-02T12:35:19.011Z,11.50
2019-03-02T12:40:40.126Z,9.50
2019-03-02T12:45:45.984Z,9.00
2019-03-02T12:50:45.215Z,9.53
2019-03-02T12:56:00.899Z,8.97
2019-03-02T13:01:04.063Z,9.23
2019-03-02T13:06:32.246Z,9.90
2019-03-02T13:11:44.021Z,10.37
2019-03-02T13:16:55.851Z,10.00
2019-03-02T13:22:19.265Z,8.57
2019-03-02T13:27:21.587Z,7.83
2019-03-02T13:32:32.841Z,8.17
2019-03-02T13:37:53.010Z,7.40
2019-03-02T13:43:06.178Z,7.83
2019-03-02T13:48:25.730Z,7.90
2019-03-02T13:53:26.307Z,7.40
2019-03-02T13:58:42.401Z,7.37
2019-03-02T14:03:57.515Z,6.90
2019-03-02T14:09:22.552Z,7.13
2019-03-02T14:14:34.356Z,7.00
2019-03-02T14:19:48.444Z,6.87
2019-03-02T14:24:55.149Z,5.97
2019-03-02T14:29:53.531Z,5.90
2019-03-02T14:34:55.487Z,5.73
2019-03-02T14:40:14.625Z,5.23
2019-03-02T14:45:21.828Z,6.10
2019-03-02T14:50:47.459Z,4.50
2019-03-02T14:56:06.342Z,4.50
2019-03-02T15:01:20.717Z,4.10
2019-03-02T15:06:40.489Z,4.13
2019-03-02T15:11:52.280Z,4.00
2019-03-02T15:16:54.540Z,4.23
2019-03-02T15:22:03.777Z,4.00
2019-03-02T15:27:12.947Z,4.33
2019-03-02T15:32:40.855Z,3.97
2019-03-02T15:38:04.133Z,3.93
2019-03-02T15:43:02.475Z,3.47
2019-03-02T15:48:28.555Z,3.43
2019-03-02T15:53:35.440Z,3.80
2019-03-02T15:58:55.654Z,4.20
2019-03-02T16:04:13.000Z,3.50
2019-03-02T16:09:25.148Z,3.17
2019-03-02T16:14:37.772Z,3.00
2019-03-02T16:19:53.170Z,2.43
2019-03-02T16:25:08.623Z,2.90
2019-03-02T16:30:21.523Z,2.60
2019-03-02T16:35:40.228Z,2.67
2019-03-02T16:40:59.661Z,2.67
2019-03-02T16:46:18.837Z,2.90
2019-03-02T16:51:29.664Z,4.50
2019-03-02T16:56:57.671Z,6.70
2019-03-02T17:02:08.492Z,4.07
2019-03-02T17:07:35.782Z,2.87
2019-03-02T17:13:12.238Z,3.47
2019-03-02T17:18:30.816Z,6.97
2019-03-02T17:23:42.389Z,11.40
2019-03-02T17:28:44.720Z,16.80
2019-03-02T17:33:55.813Z,13.10
2019-03-02T17:39:11.289Z,4.00
2019-03-02T17:44:18.703Z,4.20
2019-03-02T17:49:34.304Z,4.50
2019-03-02T17:55:05.867Z,3.90
2019-03-02T18:00:27.878Z,3.60
2019-03-02T18:05:40.119Z,3.00
2019-03-02T18:10:42.785Z,2.70
2019-03-02T18:15:52.892Z,2.70
2019-03-02T18:20:45.986Z,2.17
2019-03-02T18:25:39.499Z,2.10
2019-03-02T18:30:33.598Z,1.97
2019-03-02T18:35:26.624Z,2.17
2019-03-02T18:40:19.695Z,2.03
2019-03-02T18:45:13.559Z,2.20
2019-03-02T18:50:38.508Z,2.90
2019-03-02T18:55:32.593Z,3.53
2019-03-02T19:00:28.455Z,4.10
2019-03-02T19:05:28.339Z,5.10
2019-03-02T19:10:21.943Z,5.70
2019-03-02T19:15:16.942Z,4.90
2019-03-02T19:20:10.195Z,4.30
2019-03-02T19:25:04.417Z,3.37
2019-03-02T19:29:57.969Z,3.13
2019-03-02T19:34:51.091Z,3.93
2019-03-02T19:39:46.815Z,2.57
2019-03-02T19:44:40.047Z,2.97
2019-03-02T19:49:33.493Z,3.67
2019-03-02T19:54:26.851Z,3.10
2019-03-02T19:59:20.298Z,2.53
2019-03-02T20:04:13.661Z,2.63
2019-03-02T20:09:07.339Z,3.03
2019-03-02T20:14:00.637Z,3.13
2019-03-02T20:18:54.039Z,3.40
2019-03-02T20:23:47.632Z,4.17
2019-03-02T20:28:42.553Z,4.77
2019-03-02T20:33:37.100Z,5.90
2019-03-02T20:38:30.406Z,6.83
2019-03-02T20:43:23.904Z,6.33
2019-03-02T20:48:17.229Z,6.40
2019-03-02T20:53:10.521Z,5.07
2019-03-02T20:58:04.977Z,4.87
2019-03-02T21:02:57.877Z,4.23
2019-03-02T21:07:50.772Z,4.37
2019-03-02T21:12:43.749Z,4.73
2019-03-02T21:17:36.742Z,4.17
2019-03-02T21:22:29.653Z,4.90
2019-03-02T21:27:22.543Z,4.50
2019-03-02T21:32:15.433Z,4.17
2019-03-02T21:37:08.323Z,4.20
2019-03-02T21:42:01.415Z,4.73
2019-03-02T21:46:54.318Z,3.67
2019-03-02T21:51:47.711Z,3.87
2019-03-02T21:56:40.680Z,4.70
2019-03-02T22:01:33.649Z,4.07
2019-03-02T22:06:26.544Z,3.23
2019-03-02T22:11:19.523Z,3.77
2019-03-02T22:16:12.433Z,3.23
2019-03-02T22:22:37.034Z,3.63
2019-03-02T22:27:27.001Z,3.47
2019-03-02T22:32:22.063Z,3.03
2019-03-02T22:37:15.889Z,3.37
2019-03-02T22:42:10.522Z,3.70
2019-03-02T22:47:03.980Z,3.30
2019-03-02T22:51:59.509Z,3.27
2019-03-02T22:56:52.563Z,3.93
2019-03-02T23:02:19.745Z,4.80
2019-03-02T23:07:14.778Z,4.20
2019-03-02T23:12:09.801Z,4.03
2019-03-02T23:17:03.974Z,3.90
2019-03-02T23:21:58.130Z,3.87
2019-03-02T23:26:52.464Z,3.47
2019-03-02T23:31:52.989Z,3.20
2019-03-02T23:36:46.488Z,3.90
2019-03-02T23:41:40.518Z,3.03
2019-03-02T23:46:34.115Z,3.70
2019-03-02T23:51:29.033Z,3.87
2019-03-02T23:56:22.804Z,4.00
